sensor_id;sensor_type;location;lat;lon;timestamp;temperature;humidity
53310;DHT22;39197;53.200;5.792;2024-02-26T00:01:37;3.80;99.90
53310;DHT22;39197;53.200;5.792;2024-02-26T00:04:02;3.70;99.90
53310;DHT22;39197;53.200;5.792;2024-02-26T00:06:29;3.70;99.90
53310;DHT22;39197;53.200;5.792;2024-02-26T00:08:55;3.70;99.90
53310;DHT22;39197;53.200;5.792;2024-02-26T00:11:21;3.70;99.90
53310;DHT22;39197;53.200;5.792;2024-02-26T00:13:46;3.70;99.90
53310;DHT22;39197;53.200;5.792;2024-02-26T00:16:12;3.80;99.90
53310;DHT22;39197;53.200;5.792;2024-02-26T00:18:37;3.80;99.90
53310;DHT22;39197;53.200;5.792;2024-02-26T00:21:03;3.70;99.90
53310;DHT22;39197;53.200;5.792;2024-02-26T00:23:29;3.80;99.90
53310;DHT22;39197;53.200;5.792;2024-02-26T00:25:54;3.70;99.90
53310;DHT22;39197;53.200;5.792;2024-02-26T00:28:21;3.80;99.90
53310;DHT22;39197;53.200;5.792;2024-02-26T00:30:47;3.80;99.90
53310;DHT22;39197;53.200;5.792;2024-02-26T00:33:14;3.80;99.90
53310;DHT22;39197;53.200;5.792;2024-02-26T00:35:39;3.70;99.90
53310;DHT22;39197;53.200;5.792;2024-02-26T00:38:05;3.70;99.90
53310;DHT22;39197;53.200;5.792;2024-02-26T00:40:31;3.70;99.90
53310;DHT22;39197;53.200;5.792;2024-02-26T00:42:57;3.80;99.90
53310;DHT22;39197;53.200;5.792;2024-02-26T00:45:22;3.70;99.90
53310;DHT22;39197;53.200;5.792;2024-02-26T00:47:48;3.70;99.90
53310;DHT22;39197;53.200;5.792;2024-02-26T00:50:14;3.70;99.90
53310;DHT22;39197;53.200;5.792;2024-02-26T00:52:40;3.80;99.90
53310;DHT22;39197;53.200;5.792;2024-02-26T00:55:06;3.60;99.90
53310;DHT22;39197;53.200;5.792;2024-02-26T00:57:32;3.70;99.90
53310;DHT22;39197;53.200;5.792;2024-02-26T00:59:57;3.70;99.90
53310;DHT22;39197;53.200;5.792;2024-02-26T01:02:24;3.70;99.90
53310;DHT22;39197;53.200;5.792;2024-02-26T01:04:50;3.70;99.90
53310;DHT22;39197;53.200;5.792;2024-02-26T01:07:16;3.70;99.90
53310;DHT22;39197;53.200;5.792;2024-02-26T01:09:42;3.60;99.90
53310;DHT22;39197;53.200;5.792;2024-02-26T01:12:07;3.70;99.90
53310;DHT22;39197;53.200;5.792;2024-02-26T01:14:33;3.60;99.90
53310;DHT22;39197;53.200;5.792;2024-02-26T01:16:59;3.60;99.90
53310;DHT22;39197;53.200;5.792;2024-02-26T01:19:24;3.60;99.90
53310;DHT22;39197;53.200;5.792;2024-02-26T01:21:50;3.60;99.90
53310;DHT22;39197;53.200;5.792;2024-02-26T01:24:15;3.60;99.90
53310;DHT22;39197;53.200;5.792;2024-02-26T01:26:42;3.50;99.90
53310;DHT22;39197;53.200;5.792;2024-02-26T01:29:07;3.50;99.90
53310;DHT22;39197;53.200;5.792;2024-02-26T01:31:33;3.60;99.90
53310;DHT22;39197;53.200;5.792;2024-02-26T01:33:58;3.60;99.90
53310;DHT22;39197;53.200;5.792;2024-02-26T01:36:24;3.50;99.90
53310;DHT22;39197;53.200;5.792;2024-02-26T01:38:50;3.50;99.90
53310;DHT22;39197;53.200;5.792;2024-02-26T01:41:16;3.50;99.90
53310;DHT22;39197;53.200;5.792;2024-02-26T01:43:42;3.50;99.90
53310;DHT22;39197;53.200;5.792;2024-02-26T01:46:11;3.50;99.90
53310;DHT22;39197;53.200;5.792;2024-02-26T01:48:42;3.50;99.90
53310;DHT22;39197;53.200;5.792;2024-02-26T01:51:08;3.40;99.90
53310;DHT22;39197;53.200;5.792;2024-02-26T01:53:35;3.40;99.90
53310;DHT22;39197;53.200;5.792;2024-02-26T01:56:01;3.40;99.90
53310;DHT22;39197;53.200;5.792;2024-02-26T01:58:29;3.50;99.90
53310;DHT22;39197;53.200;5.792;2024-02-26T02:00:57;3.40;99.90
53310;DHT22;39197;53.200;5.792;2024-02-26T02:03:23;3.40;99.90
53310;DHT22;39197;53.200;5.792;2024-02-26T02:05:50;3.40;99.90
53310;DHT22;39197;53.200;5.792;2024-02-26T02:08:15;3.50;99.90
53310;DHT22;39197;53.200;5.792;2024-02-26T02:10:42;3.40;99.90
53310;DHT22;39197;53.200;5.792;2024-02-26T02:13:08;3.40;99.90
53310;DHT22;39197;53.200;5.792;2024-02-26T02:15:34;3.50;99.90
53310;DHT22;39197;53.200;5.792;2024-02-26T02:18:00;3.50;99.90
53310;DHT22;39197;53.200;5.792;2024-02-26T02:20:35;3.40;99.90
53310;DHT22;39197;53.200;5.792;2024-02-26T02:23:01;3.50;99.90
53310;DHT22;39197;53.200;5.792;2024-02-26T02:25:27;3.40;99.90
53310;DHT22;39197;53.200;5.792;2024-02-26T02:27:54;3.50;99.90
53310;DHT22;39197;53.200;5.792;2024-02-26T02:30:21;3.40;99.90
53310;DHT22;39197;53.200;5.792;2024-02-26T02:32:49;3.50;99.90
53310;DHT22;39197;53.200;5.792;2024-02-26T02:35:15;3.50;99.90
53310;DHT22;39197;53.200;5.792;2024-02-26T02:37:40;3.40;99.90
53310;DHT22;39197;53.200;5.792;2024-02-26T02:40:06;3.40;99.90
53310;DHT22;39197;53.200;5.792;2024-02-26T02:42:32;3.40;99.90
53310;DHT22;39197;53.200;5.792;2024-02-26T02:44:58;3.50;99.90
53310;DHT22;39197;53.200;5.792;2024-02-26T02:47:23;3.50;99.90
53310;DHT22;39197;53.200;5.792;2024-02-26T02:49:49;3.60;99.90
53310;DHT22;39197;53.200;5.792;2024-02-26T02:52:14;3.60;99.90
53310;DHT22;39197;53.200;5.792;2024-02-26T02:54:40;3.50;99.90
53310;DHT22;39197;53.200;5.792;2024-02-26T02:57:10;3.60;99.90
53310;DHT22;39197;53.200;5.792;2024-02-26T02:59:37;3.60;99.90
53310;DHT22;39197;53.200;5.792;2024-02-26T03:02:02;3.70;99.90
53310;DHT22;39197;53.200;5.792;2024-02-26T03:04:28;3.70;99.90
53310;DHT22;39197;53.200;5.792;2024-02-26T03:06:54;3.70;99.90
53310;DHT22;39197;53.200;5.792;2024-02-26T03:09:20;3.60;99.90
53310;DHT22;39197;53.200;5.792;2024-02-26T03:11:45;3.60;99.90
53310;DHT22;39197;53.200;5.792;2024-02-26T03:14:11;3.70;99.90
53310;DHT22;39197;53.200;5.792;2024-02-26T03:16:37;3.70;99.90
53310;DHT22;39197;53.200;5.792;2024-02-26T03:19:02;3.60;99.90
53310;DHT22;39197;53.200;5.792;2024-02-26T03:21:28;3.70;99.90
53310;DHT22;39197;53.200;5.792;2024-02-26T03:23:54;3.70;99.90
53310;DHT22;39197;53.200;5.792;2024-02-26T03:26:20;3.60;99.90
53310;DHT22;39197;53.200;5.792;2024-02-26T03:28:46;3.70;99.90
53310;DHT22;39197;53.200;5.792;2024-02-26T03:31:12;3.60;99.90
53310;DHT22;39197;53.200;5.792;2024-02-26T03:33:38;3.60;99.90
53310;DHT22;39197;53.200;5.792;2024-02-26T03:36:04;3.60;99.90
53310;DHT22;39197;53.200;5.792;2024-02-26T03:38:29;3.60;99.90
53310;DHT22;39197;53.200;5.792;2024-02-26T03:40:55;3.60;99.90
53310;DHT22;39197;53.200;5.792;2024-02-26T03:43:21;3.70;99.90
53310;DHT22;39197;53.200;5.792;2024-02-26T03:45:47;3.60;99.90
53310;DHT22;39197;53.200;5.792;2024-02-26T03:48:12;3.60;99.90
53310;DHT22;39197;53.200;5.792;2024-02-26T03:50:38;3.60;99.90
53310;DHT22;39197;53.200;5.792;2024-02-26T03:53:04;3.70;99.90
53310;DHT22;39197;53.200;5.792;2024-02-26T03:55:30;3.60;99.90
53310;DHT22;39197;53.200;5.792;2024-02-26T03:57:55;3.70;99.90
53310;DHT22;39197;53.200;5.792;2024-02-26T04:00:21;3.60;99.90
53310;DHT22;39197;53.200;5.792;2024-02-26T04:02:47;3.60;99.90
53310;DHT22;39197;53.200;5.792;2024-02-26T04:05:13;3.60;99.90
53310;DHT22;39197;53.200;5.792;2024-02-26T04:07:39;3.70;99.90
53310;DHT22;39197;53.200;5.792;2024-02-26T04:10:10;3.70;99.90
53310;DHT22;39197;53.200;5.792;2024-02-26T04:12:37;3.70;99.90
53310;DHT22;39197;53.200;5.792;2024-02-26T04:15:03;3.80;99.90
53310;DHT22;39197;53.200;5.792;2024-02-26T04:17:30;3.80;99.90
53310;DHT22;39197;53.200;5.792;2024-02-26T04:19:55;3.80;99.90
53310;DHT22;39197;53.200;5.792;2024-02-26T04:22:21;3.80;99.90
53310;DHT22;39197;53.200;5.792;2024-02-26T04:24:46;3.80;99.90
53310;DHT22;39197;53.200;5.792;2024-02-26T04:27:12;3.90;99.90
53310;DHT22;39197;53.200;5.792;2024-02-26T04:29:38;3.90;99.90
53310;DHT22;39197;53.200;5.792;2024-02-26T04:32:03;3.90;99.90
53310;DHT22;39197;53.200;5.792;2024-02-26T04:34:30;3.90;99.90
53310;DHT22;39197;53.200;5.792;2024-02-26T04:36:55;3.90;99.90
53310;DHT22;39197;53.200;5.792;2024-02-26T04:39:21;4.00;99.90
53310;DHT22;39197;53.200;5.792;2024-02-26T04:41:46;4.00;99.90
53310;DHT22;39197;53.200;5.792;2024-02-26T04:44:12;3.90;99.90
53310;DHT22;39197;53.200;5.792;2024-02-26T04:46:37;3.90;99.90
53310;DHT22;39197;53.200;5.792;2024-02-26T04:49:03;4.00;99.90
53310;DHT22;39197;53.200;5.792;2024-02-26T04:51:29;3.90;99.90
53310;DHT22;39197;53.200;5.792;2024-02-26T04:53:54;4.00;99.90
53310;DHT22;39197;53.200;5.792;2024-02-26T04:56:23;4.00;99.90
53310;DHT22;39197;53.200;5.792;2024-02-26T04:58:49;4.00;99.90
53310;DHT22;39197;53.200;5.792;2024-02-26T05:01:15;4.10;99.90
53310;DHT22;39197;53.200;5.792;2024-02-26T05:03:42;4.00;99.90
53310;DHT22;39197;53.200;5.792;2024-02-26T05:06:08;4.00;99.90
53310;DHT22;39197;53.200;5.792;2024-02-26T05:08:34;4.00;99.90
53310;DHT22;39197;53.200;5.792;2024-02-26T05:11:02;4.00;99.90
53310;DHT22;39197;53.200;5.792;2024-02-26T05:13:28;4.00;99.90
53310;DHT22;39197;53.200;5.792;2024-02-26T05:15:54;4.00;99.90
53310;DHT22;39197;53.200;5.792;2024-02-26T05:18:20;4.00;99.90
53310;DHT22;39197;53.200;5.792;2024-02-26T05:20:45;4.10;99.90
53310;DHT22;39197;53.200;5.792;2024-02-26T05:23:11;4.00;99.90
53310;DHT22;39197;53.200;5.792;2024-02-26T05:25:37;4.00;99.90
53310;DHT22;39197;53.200;5.792;2024-02-26T05:28:02;4.10;99.90
53310;DHT22;39197;53.200;5.792;2024-02-26T05:30:28;4.00;99.90
53310;DHT22;39197;53.200;5.792;2024-02-26T05:32:54;4.00;99.90
53310;DHT22;39197;53.200;5.792;2024-02-26T05:35:20;4.10;99.90
53310;DHT22;39197;53.200;5.792;2024-02-26T05:37:45;4.00;99.90
53310;DHT22;39197;53.200;5.792;2024-02-26T05:40:11;4.00;99.90
53310;DHT22;39197;53.200;5.792;2024-02-26T05:42:37;4.00;99.90
53310;DHT22;39197;53.200;5.792;2024-02-26T05:45:03;4.00;99.90
53310;DHT22;39197;53.200;5.792;2024-02-26T05:47:33;4.00;99.90
53310;DHT22;39197;53.200;5.792;2024-02-26T05:49:58;4.00;99.90
53310;DHT22;39197;53.200;5.792;2024-02-26T05:52:27;4.00;99.90
53310;DHT22;39197;53.200;5.792;2024-02-26T05:54:54;4.00;99.90
53310;DHT22;39197;53.200;5.792;2024-02-26T05:57:20;3.90;99.90
53310;DHT22;39197;53.200;5.792;2024-02-26T05:59:46;3.90;99.90
53310;DHT22;39197;53.200;5.792;2024-02-26T06:02:11;3.90;99.90
53310;DHT22;39197;53.200;5.792;2024-02-26T06:04:37;3.90;99.90
53310;DHT22;39197;53.200;5.792;2024-02-26T06:07:02;3.90;99.90
53310;DHT22;39197;53.200;5.792;2024-02-26T06:09:28;3.90;99.90
53310;DHT22;39197;53.200;5.792;2024-02-26T06:11:54;3.90;99.90
53310;DHT22;39197;53.200;5.792;2024-02-26T06:14:20;3.90;99.90
53310;DHT22;39197;53.200;5.792;2024-02-26T06:16:46;3.80;99.90
53310;DHT22;39197;53.200;5.792;2024-02-26T06:19:12;3.90;99.90
53310;DHT22;39197;53.200;5.792;2024-02-26T06:21:37;3.90;99.90
53310;DHT22;39197;53.200;5.792;2024-02-26T06:24:03;3.90;99.90
53310;DHT22;39197;53.200;5.792;2024-02-26T06:26:29;4.00;99.90
53310;DHT22;39197;53.200;5.792;2024-02-26T06:28:55;4.00;99.90
53310;DHT22;39197;53.200;5.792;2024-02-26T06:31:21;4.00;99.90
53310;DHT22;39197;53.200;5.792;2024-02-26T06:33:48;4.10;99.90
53310;DHT22;39197;53.200;5.792;2024-02-26T06:36:15;4.10;99.90
53310;DHT22;39197;53.200;5.792;2024-02-26T06:38:41;4.10;99.90
53310;DHT22;39197;53.200;5.792;2024-02-26T06:41:06;4.10;99.90
53310;DHT22;39197;53.200;5.792;2024-02-26T06:43:32;4.20;99.90
53310;DHT22;39197;53.200;5.792;2024-02-26T06:45:58;4.20;99.90
53310;DHT22;39197;53.200;5.792;2024-02-26T06:48:24;4.20;99.90
53310;DHT22;39197;53.200;5.792;2024-02-26T06:50:50;4.20;99.90
53310;DHT22;39197;53.200;5.792;2024-02-26T06:53:15;4.20;99.90
53310;DHT22;39197;53.200;5.792;2024-02-26T06:55:42;4.20;99.90
53310;DHT22;39197;53.200;5.792;2024-02-26T06:58:08;4.30;99.90
53310;DHT22;39197;53.200;5.792;2024-02-26T07:00:34;4.20;99.90
53310;DHT22;39197;53.200;5.792;2024-02-26T07:03:00;4.20;99.90
53310;DHT22;39197;53.200;5.792;2024-02-26T07:05:26;4.20;99.90
53310;DHT22;39197;53.200;5.792;2024-02-26T07:07:52;4.20;99.90
53310;DHT22;39197;53.200;5.792;2024-02-26T07:10:18;4.20;99.90
53310;DHT22;39197;53.200;5.792;2024-02-26T07:12:44;4.20;99.90
53310;DHT22;39197;53.200;5.792;2024-02-26T07:15:10;4.20;99.90
53310;DHT22;39197;53.200;5.792;2024-02-26T07:17:35;4.10;99.90
53310;DHT22;39197;53.200;5.792;2024-02-26T07:20:01;4.10;99.90
53310;DHT22;39197;53.200;5.792;2024-02-26T07:22:29;4.20;99.90
53310;DHT22;39197;53.200;5.792;2024-02-26T07:24:55;4.20;99.90
53310;DHT22;39197;53.200;5.792;2024-02-26T07:27:21;4.20;99.90
53310;DHT22;39197;53.200;5.792;2024-02-26T07:29:47;4.20;99.90
53310;DHT22;39197;53.200;5.792;2024-02-26T07:32:12;4.20;99.90
53310;DHT22;39197;53.200;5.792;2024-02-26T07:34:38;4.20;99.90
53310;DHT22;39197;53.200;5.792;2024-02-26T07:37:08;4.20;99.90
53310;DHT22;39197;53.200;5.792;2024-02-26T07:39:34;4.20;99.90
53310;DHT22;39197;53.200;5.792;2024-02-26T07:42:00;4.30;99.90
53310;DHT22;39197;53.200;5.792;2024-02-26T07:44:25;4.30;99.90
53310;DHT22;39197;53.200;5.792;2024-02-26T07:46:51;4.30;99.90
53310;DHT22;39197;53.200;5.792;2024-02-26T07:49:16;4.30;99.90
53310;DHT22;39197;53.200;5.792;2024-02-26T07:51:42;4.40;99.90
53310;DHT22;39197;53.200;5.792;2024-02-26T07:54:07;4.30;99.90
53310;DHT22;39197;53.200;5.792;2024-02-26T07:56:33;4.30;99.90
53310;DHT22;39197;53.200;5.792;2024-02-26T07:58:59;4.30;99.90
53310;DHT22;39197;53.200;5.792;2024-02-26T08:01:24;4.30;99.90
53310;DHT22;39197;53.200;5.792;2024-02-26T08:03:55;4.40;99.90
53310;DHT22;39197;53.200;5.792;2024-02-26T08:06:21;4.50;99.90
53310;DHT22;39197;53.200;5.792;2024-02-26T08:08:46;4.50;99.90
53310;DHT22;39197;53.200;5.792;2024-02-26T08:11:14;4.50;99.90
53310;DHT22;39197;53.200;5.792;2024-02-26T08:13:40;4.50;99.90
53310;DHT22;39197;53.200;5.792;2024-02-26T08:16:06;4.60;99.90
53310;DHT22;39197;53.200;5.792;2024-02-26T08:18:32;4.50;99.90
53310;DHT22;39197;53.200;5.792;2024-02-26T08:20:57;4.60;99.90
53310;DHT22;39197;53.200;5.792;2024-02-26T08:23:24;4.60;99.90
53310;DHT22;39197;53.200;5.792;2024-02-26T08:25:50;4.60;99.90
53310;DHT22;39197;53.200;5.792;2024-02-26T08:28:16;4.70;99.90
53310;DHT22;39197;53.200;5.792;2024-02-26T08:30:44;4.70;99.90
53310;DHT22;39197;53.200;5.792;2024-02-26T08:33:10;4.80;99.90
53310;DHT22;39197;53.200;5.792;2024-02-26T08:35:36;5.20;99.90
53310;DHT22;39197;53.200;5.792;2024-02-26T08:38:02;4.80;99.90
53310;DHT22;39197;53.200;5.792;2024-02-26T08:40:29;4.80;99.90
53310;DHT22;39197;53.200;5.792;2024-02-26T08:42:55;5.60;99.90
53310;DHT22;39197;53.200;5.792;2024-02-26T08:45:21;5.00;99.90
53310;DHT22;39197;53.200;5.792;2024-02-26T08:47:49;5.50;99.90
53310;DHT22;39197;53.200;5.792;2024-02-26T08:50:15;5.70;99.90
53310;DHT22;39197;53.200;5.792;2024-02-26T08:52:41;5.30;99.90
53310;DHT22;39197;53.200;5.792;2024-02-26T08:55:07;5.60;99.90
53310;DHT22;39197;53.200;5.792;2024-02-26T08:57:34;5.10;99.90
53310;DHT22;39197;53.200;5.792;2024-02-26T09:00:00;5.10;99.90
53310;DHT22;39197;53.200;5.792;2024-02-26T09:02:26;5.10;99.90
53310;DHT22;39197;53.200;5.792;2024-02-26T09:04:52;5.10;99.90
53310;DHT22;39197;53.200;5.792;2024-02-26T09:07:21;5.70;99.90
53310;DHT22;39197;53.200;5.792;2024-02-26T09:09:50;5.20;99.90
53310;DHT22;39197;53.200;5.792;2024-02-26T09:12:16;6.00;99.90
53310;DHT22;39197;53.200;5.792;2024-02-26T09:14:42;5.60;99.90
53310;DHT22;39197;53.200;5.792;2024-02-26T09:17:08;5.40;99.90
53310;DHT22;39197;53.200;5.792;2024-02-26T09:19:34;5.50;99.90
53310;DHT22;39197;53.200;5.792;2024-02-26T09:22:00;5.90;99.90
53310;DHT22;39197;53.200;5.792;2024-02-26T09:24:26;5.50;99.90
53310;DHT22;39197;53.200;5.792;2024-02-26T09:26:52;5.50;99.90
53310;DHT22;39197;53.200;5.792;2024-02-26T09:29:18;6.40;99.90
53310;DHT22;39197;53.200;5.792;2024-02-26T09:31:52;5.70;99.90
53310;DHT22;39197;53.200;5.792;2024-02-26T09:34:17;5.70;99.90
53310;DHT22;39197;53.200;5.792;2024-02-26T09:36:43;5.60;99.90
53310;DHT22;39197;53.200;5.792;2024-02-26T09:39:09;5.70;99.90
53310;DHT22;39197;53.200;5.792;2024-02-26T09:41:37;5.70;99.90
53310;DHT22;39197;53.200;5.792;2024-02-26T09:44:05;6.10;99.90
53310;DHT22;39197;53.200;5.792;2024-02-26T09:46:31;5.90;99.90
53310;DHT22;39197;53.200;5.792;2024-02-26T09:48:57;5.90;99.90
53310;DHT22;39197;53.200;5.792;2024-02-26T09:51:23;6.10;99.90
53310;DHT22;39197;53.200;5.792;2024-02-26T09:53:52;6.10;99.90
53310;DHT22;39197;53.200;5.792;2024-02-26T09:56:18;6.00;99.90
53310;DHT22;39197;53.200;5.792;2024-02-26T09:58:44;6.10;99.90
53310;DHT22;39197;53.200;5.792;2024-02-26T10:01:17;6.20;99.90
53310;DHT22;39197;53.200;5.792;2024-02-26T10:03:43;6.30;99.90
53310;DHT22;39197;53.200;5.792;2024-02-26T10:06:10;6.20;99.90
53310;DHT22;39197;53.200;5.792;2024-02-26T10:08:37;6.30;99.90
53310;DHT22;39197;53.200;5.792;2024-02-26T10:11:09;7.30;99.90
53310;DHT22;39197;53.200;5.792;2024-02-26T10:13:35;6.30;99.90
53310;DHT22;39197;53.200;5.792;2024-02-26T10:16:02;6.30;99.90
53310;DHT22;39197;53.200;5.792;2024-02-26T10:18:49;6.30;99.90
53310;DHT22;39197;53.200;5.792;2024-02-26T10:21:20;6.70;99.90
53310;DHT22;39197;53.200;5.792;2024-02-26T10:23:53;6.70;99.90
53310;DHT22;39197;53.200;5.792;2024-02-26T10:26:20;6.80;99.90
53310;DHT22;39197;53.200;5.792;2024-02-26T10:28:46;6.10;99.90
53310;DHT22;39197;53.200;5.792;2024-02-26T10:31:13;6.30;99.90
53310;DHT22;39197;53.200;5.792;2024-02-26T10:33:41;7.20;99.90
53310;DHT22;39197;53.200;5.792;2024-02-26T10:36:08;6.40;99.90
53310;DHT22;39197;53.200;5.792;2024-02-26T10:38:37;6.40;99.90
53310;DHT22;39197;53.200;5.792;2024-02-26T10:41:27;7.10;99.90
53310;DHT22;39197;53.200;5.792;2024-02-26T10:43:52;6.50;99.90
53310;DHT22;39197;53.200;5.792;2024-02-26T10:46:22;6.50;99.90
53310;DHT22;39197;53.200;5.792;2024-02-26T10:48:53;6.30;99.90
53310;DHT22;39197;53.200;5.792;2024-02-26T10:51:29;6.80;99.90
53310;DHT22;39197;53.200;5.792;2024-02-26T10:53:57;6.50;99.90
53310;DHT22;39197;53.200;5.792;2024-02-26T10:56:34;6.90;99.90
53310;DHT22;39197;53.200;5.792;2024-02-26T10:59:00;6.70;99.90
53310;DHT22;39197;53.200;5.792;2024-02-26T11:01:27;7.20;99.90
53310;DHT22;39197;53.200;5.792;2024-02-26T11:03:57;6.70;99.90
53310;DHT22;39197;53.200;5.792;2024-02-26T11:06:26;6.60;99.90
53310;DHT22;39197;53.200;5.792;2024-02-26T11:08:53;6.60;99.90
53310;DHT22;39197;53.200;5.792;2024-02-26T11:11:20;6.70;99.90
53310;DHT22;39197;53.200;5.792;2024-02-26T11:13:47;6.70;99.90
53310;DHT22;39197;53.200;5.792;2024-02-26T11:16:21;6.70;99.90
53310;DHT22;39197;53.200;5.792;2024-02-26T11:18:48;6.70;99.90
53310;DHT22;39197;53.200;5.792;2024-02-26T11:21:16;6.70;99.90
53310;DHT22;39197;53.200;5.792;2024-02-26T11:23:47;6.80;99.90
53310;DHT22;39197;53.200;5.792;2024-02-26T11:26:15;6.80;99.90
53310;DHT22;39197;53.200;5.792;2024-02-26T11:28:43;6.80;99.90
53310;DHT22;39197;53.200;5.792;2024-02-26T11:31:09;6.80;99.90
53310;DHT22;39197;53.200;5.792;2024-02-26T11:33:36;6.80;99.90
53310;DHT22;39197;53.200;5.792;2024-02-26T11:36:12;6.70;99.90
53310;DHT22;39197;53.200;5.792;2024-02-26T11:38:39;6.80;99.90
53310;DHT22;39197;53.200;5.792;2024-02-26T11:41:06;6.90;99.90
53310;DHT22;39197;53.200;5.792;2024-02-26T11:44:02;6.90;99.90
53310;DHT22;39197;53.200;5.792;2024-02-26T11:46:32;6.90;99.90
53310;DHT22;39197;53.200;5.792;2024-02-26T11:49:02;6.90;99.90
53310;DHT22;39197;53.200;5.792;2024-02-26T11:51:33;6.90;99.90
53310;DHT22;39197;53.200;5.792;2024-02-26T11:53:59;7.00;99.90
53310;DHT22;39197;53.200;5.792;2024-02-26T11:56:25;6.90;99.90
53310;DHT22;39197;53.200;5.792;2024-02-26T11:59:09;6.90;99.90
53310;DHT22;39197;53.200;5.792;2024-02-26T12:01:39;7.00;99.90
53310;DHT22;39197;53.200;5.792;2024-02-26T12:04:17;6.90;99.90
53310;DHT22;39197;53.200;5.792;2024-02-26T12:06:56;6.90;99.90
53310;DHT22;39197;53.200;5.792;2024-02-26T12:09:38;6.90;99.90
53310;DHT22;39197;53.200;5.792;2024-02-26T12:12:09;6.90;99.90
53310;DHT22;39197;53.200;5.792;2024-02-26T12:14:51;7.50;99.90
53310;DHT22;39197;53.200;5.792;2024-02-26T12:17:22;6.90;99.90
53310;DHT22;39197;53.200;5.792;2024-02-26T12:19:49;6.90;99.90
53310;DHT22;39197;53.200;5.792;2024-02-26T12:22:15;7.00;99.90
53310;DHT22;39197;53.200;5.792;2024-02-26T12:24:41;6.80;99.90
53310;DHT22;39197;53.200;5.792;2024-02-26T12:27:07;6.80;99.90
53310;DHT22;39197;53.200;5.792;2024-02-26T12:29:33;6.80;99.90
53310;DHT22;39197;53.200;5.792;2024-02-26T12:31:58;6.90;99.90
53310;DHT22;39197;53.200;5.792;2024-02-26T12:34:25;6.90;99.90
53310;DHT22;39197;53.200;5.792;2024-02-26T12:36:51;7.00;99.90
53310;DHT22;39197;53.200;5.792;2024-02-26T12:39:17;7.00;99.90
53310;DHT22;39197;53.200;5.792;2024-02-26T12:41:42;7.10;99.90
53310;DHT22;39197;53.200;5.792;2024-02-26T12:44:17;6.90;99.90
53310;DHT22;39197;53.200;5.792;2024-02-26T12:46:43;6.90;99.90
53310;DHT22;39197;53.200;5.792;2024-02-26T12:49:14;6.90;99.90
53310;DHT22;39197;53.200;5.792;2024-02-26T12:51:41;6.90;99.90
53310;DHT22;39197;53.200;5.792;2024-02-26T12:54:07;6.90;99.90
53310;DHT22;39197;53.200;5.792;2024-02-26T12:56:34;6.90;99.90
53310;DHT22;39197;53.200;5.792;2024-02-26T12:59:00;6.90;99.90
53310;DHT22;39197;53.200;5.792;2024-02-26T13:01:28;6.80;99.90
53310;DHT22;39197;53.200;5.792;2024-02-26T13:03:54;6.80;99.90
53310;DHT22;39197;53.200;5.792;2024-02-26T13:06:21;6.80;99.90
53310;DHT22;39197;53.200;5.792;2024-02-26T13:08:47;6.90;99.90
53310;DHT22;39197;53.200;5.792;2024-02-26T13:11:14;7.40;99.90
53310;DHT22;39197;53.200;5.792;2024-02-26T13:13:40;6.80;99.90
53310;DHT22;39197;53.200;5.792;2024-02-26T13:16:13;7.30;99.90
53310;DHT22;39197;53.200;5.792;2024-02-26T13:18:39;6.80;99.90
53310;DHT22;39197;53.200;5.792;2024-02-26T13:21:12;6.60;99.90
53310;DHT22;39197;53.200;5.792;2024-02-26T13:23:42;6.70;99.90
53310;DHT22;39197;53.200;5.792;2024-02-26T13:26:09;6.70;99.90
53310;DHT22;39197;53.200;5.792;2024-02-26T13:28:37;7.60;99.90
53310;DHT22;39197;53.200;5.792;2024-02-26T13:31:03;6.80;99.90
53310;DHT22;39197;53.200;5.792;2024-02-26T13:33:31;6.50;99.90
53310;DHT22;39197;53.200;5.792;2024-02-26T13:35:58;6.60;99.90
53310;DHT22;39197;53.200;5.792;2024-02-26T13:38:25;6.60;99.90
53310;DHT22;39197;53.200;5.792;2024-02-26T13:40:51;6.50;99.90
53310;DHT22;39197;53.200;5.792;2024-02-26T13:43:17;6.50;99.90
53310;DHT22;39197;53.200;5.792;2024-02-26T13:45:43;7.00;99.90
53310;DHT22;39197;53.200;5.792;2024-02-26T13:48:11;6.30;99.90
53310;DHT22;39197;53.200;5.792;2024-02-26T13:50:38;6.30;99.90
53310;DHT22;39197;53.200;5.792;2024-02-26T13:53:04;6.60;99.90
53310;DHT22;39197;53.200;5.792;2024-02-26T13:55:31;6.20;99.90
53310;DHT22;39197;53.200;5.792;2024-02-26T13:57:58;6.20;99.90
53310;DHT22;39197;53.200;5.792;2024-02-26T14:00:26;6.30;99.90
53310;DHT22;39197;53.200;5.792;2024-02-26T14:02:52;6.30;99.90
53310;DHT22;39197;53.200;5.792;2024-02-26T14:05:17;6.40;99.90
53310;DHT22;39197;53.200;5.792;2024-02-26T14:07:43;6.50;99.90
53310;DHT22;39197;53.200;5.792;2024-02-26T14:10:11;6.20;99.90
53310;DHT22;39197;53.200;5.792;2024-02-26T14:12:38;6.30;99.90
53310;DHT22;39197;53.200;5.792;2024-02-26T14:15:06;6.30;99.90
53310;DHT22;39197;53.200;5.792;2024-02-26T14:17:32;6.10;99.90
53310;DHT22;39197;53.200;5.792;2024-02-26T14:19:58;6.00;99.90
53310;DHT22;39197;53.200;5.792;2024-02-26T14:22:24;6.10;99.90
53310;DHT22;39197;53.200;5.792;2024-02-26T14:24:52;6.20;99.90
53310;DHT22;39197;53.200;5.792;2024-02-26T14:27:18;6.20;99.90
53310;DHT22;39197;53.200;5.792;2024-02-26T14:29:47;6.20;99.90
53310;DHT22;39197;53.200;5.792;2024-02-26T14:32:13;6.10;99.90
53310;DHT22;39197;53.200;5.792;2024-02-26T14:34:39;6.20;99.90
53310;DHT22;39197;53.200;5.792;2024-02-26T14:37:05;6.20;99.90
53310;DHT22;39197;53.200;5.792;2024-02-26T14:39:37;6.20;99.90
53310;DHT22;39197;53.200;5.792;2024-02-26T14:42:06;6.10;99.90
53310;DHT22;39197;53.200;5.792;2024-02-26T14:44:32;6.20;99.90
53310;DHT22;39197;53.200;5.792;2024-02-26T14:46:58;5.90;99.90
53310;DHT22;39197;53.200;5.792;2024-02-26T14:49:23;6.20;99.90
53310;DHT22;39197;53.200;5.792;2024-02-26T14:51:49;6.20;99.90
53310;DHT22;39197;53.200;5.792;2024-02-26T14:54:15;6.20;99.90
53310;DHT22;39197;53.200;5.792;2024-02-26T14:56:40;6.30;99.90
53310;DHT22;39197;53.200;5.792;2024-02-26T14:59:06;6.30;99.90
53310;DHT22;39197;53.200;5.792;2024-02-26T15:01:32;6.20;99.90
53310;DHT22;39197;53.200;5.792;2024-02-26T15:03:59;6.20;99.90
53310;DHT22;39197;53.200;5.792;2024-02-26T15:06:25;6.20;99.90
53310;DHT22;39197;53.200;5.792;2024-02-26T15:08:51;6.20;99.90
53310;DHT22;39197;53.200;5.792;2024-02-26T15:11:17;6.30;99.90
53310;DHT22;39197;53.200;5.792;2024-02-26T15:13:46;6.80;99.90
53310;DHT22;39197;53.200;5.792;2024-02-26T15:16:18;6.30;99.90
53310;DHT22;39197;53.200;5.792;2024-02-26T15:18:46;6.20;99.90
53310;DHT22;39197;53.200;5.792;2024-02-26T15:21:13;6.20;99.90
53310;DHT22;39197;53.200;5.792;2024-02-26T15:23:39;6.20;99.90
53310;DHT22;39197;53.200;5.792;2024-02-26T15:26:05;6.20;99.90
53310;DHT22;39197;53.200;5.792;2024-02-26T15:28:30;6.30;99.90
53310;DHT22;39197;53.200;5.792;2024-02-26T15:30:56;6.20;99.90
53310;DHT22;39197;53.200;5.792;2024-02-26T15:33:25;6.20;99.90
53310;DHT22;39197;53.200;5.792;2024-02-26T15:35:51;6.20;99.90
53310;DHT22;39197;53.200;5.792;2024-02-26T15:38:19;6.20;99.90
53310;DHT22;39197;53.200;5.792;2024-02-26T15:40:45;6.20;99.90
53310;DHT22;39197;53.200;5.792;2024-02-26T15:43:19;6.20;99.90